createdAt,value
2017-09-07T00:02:03.266Z,14.9
2017-09-07T00:07:03.173Z,14.9
2017-09-07T00:12:03.278Z,14.9
2017-09-07T00:17:03.309Z,14.9
2017-09-07T00:22:02.762Z,14.9
2017-09-07T00:27:03.395Z,14.9
2017-09-07T00:32:03.056Z,14.8
2017-09-07T00:37:03.005Z,14.7
2017-09-07T00:42:02.685Z,14.7
2017-09-07T00:47:03.466Z,14.7
2017-09-07T00:52:03.122Z,14.6
2017-09-07T00:57:02.935Z,14.6
2017-09-07T01:02:02.961Z,14.6
2017-09-07T01:07:02.720Z,14.5
2017-09-07T01:12:02.722Z,14.6
2017-09-07T01:17:03.580Z,14.6
2017-09-07T01:22:03.251Z,14.6
2017-09-07T01:27:03.025Z,14.6
2017-09-07T01:32:02.801Z,14.5
2017-09-07T01:37:03.566Z,14.4
2017-09-07T01:42:03.238Z,14.3
2017-09-07T01:47:03.188Z,14.1
2017-09-07T01:52:02.862Z,14.1
2017-09-07T01:57:02.715Z,14.1
2017-09-07T02:02:03.563Z,14.0
2017-09-07T02:07:02.796Z,13.9
2017-09-07T02:12:03.624Z,13.8
2017-09-07T02:17:03.469Z,13.8
2017-09-07T02:22:02.742Z,13.8
2017-09-07T02:27:03.305Z,13.8
2017-09-07T02:32:03.007Z,13.9
2017-09-07T02:37:03.048Z,13.8
2017-09-07T02:42:03.286Z,13.9
2017-09-07T02:47:03.570Z,13.8
2017-09-07T02:52:03.014Z,13.8
2017-09-07T02:57:03.251Z,13.8
2017-09-07T03:02:03.534Z,13.7
2017-09-07T03:07:03.031Z,13.7
2017-09-07T03:12:03.487Z,13.7
2017-09-07T03:17:02.980Z,13.7
2017-09-07T03:22:03.218Z,13.7
2017-09-07T03:27:03.424Z,13.7
2017-09-07T03:32:02.848Z,13.9
2017-09-07T03:37:03.169Z,13.9
2017-09-07T03:42:03.353Z,14.0
2017-09-07T03:47:02.788Z,14.0
2017-09-07T03:52:02.995Z,14.0
2017-09-07T03:57:03.278Z,13.9
2017-09-07T04:02:02.670Z,13.9
2017-09-07T04:07:03.098Z,13.9
2017-09-07T04:12:03.538Z,13.9
2017-09-07T04:17:03.302Z,13.9
2017-09-07T04:22:03.299Z,13.9
2017-09-07T04:27:03.681Z,13.9
2017-09-07T04:32:13.897Z,14.0
2017-09-07T04:37:03.555Z,14.0
2017-09-07T04:42:03.025Z,14.0
2017-09-07T04:47:13.860Z,14.1
2017-09-07T04:52:03.228Z,14.1
2017-09-07T04:57:03.468Z,14.2
2017-09-07T05:02:17.797Z,14.3
2017-09-07T05:07:03.226Z,14.4
2017-09-07T05:12:03.032Z,14.5
2017-09-07T05:17:13.965Z,14.4
2017-09-07T05:22:02.984Z,14.4
2017-09-07T05:27:03.504Z,14.4
2017-09-07T05:32:17.172Z,14.3
2017-09-07T05:37:03.341Z,14.4
2017-09-07T05:42:02.818Z,14.4
2017-09-07T05:47:13.532Z,14.4
2017-09-07T05:52:03.427Z,14.3
2017-09-07T05:57:02.773Z,14.2
2017-09-07T06:02:17.594Z,14.2
2017-09-07T06:07:03.411Z,14.1
2017-09-07T06:12:02.921Z,14.1
2017-09-07T06:17:23.079Z,14.2
2017-09-07T06:22:03.374Z,14.2
2017-09-07T06:27:02.840Z,14.2
2017-09-07T06:32:18.084Z,14.3
2017-09-07T06:37:02.698Z,14.3
2017-09-07T06:42:03.101Z,14.4
2017-09-07T06:47:13.446Z,14.5
2017-09-07T06:52:02.934Z,14.5
2017-09-07T06:57:02.925Z,14.5
2017-09-07T07:02:13.746Z,14.5
2017-09-07T07:07:03.525Z,14.5
2017-09-07T07:12:03.530Z,14.5
2017-09-07T07:17:17.605Z,14.6
2017-09-07T07:22:03.223Z,14.6
2017-09-07T07:27:03.365Z,14.7
2017-09-07T07:32:13.136Z,14.7
2017-09-07T07:37:03.276Z,14.7
2017-09-07T07:42:03.607Z,14.7
2017-09-07T07:47:17.659Z,14.8
2017-09-07T07:52:03.071Z,14.9
2017-09-07T07:57:03.485Z,15.0
2017-09-07T08:02:13.287Z,15.3
2017-09-07T08:07:03.483Z,15.6
2017-09-07T08:12:03.206Z,15.6
2017-09-07T08:17:17.550Z,16.0
2017-09-07T08:22:03.438Z,16.3
2017-09-07T08:27:02.966Z,16.3
2017-09-07T08:32:17.690Z,16.6
2017-09-07T08:37:03.036Z,16.7
2017-09-07T08:42:03.393Z,16.7
2017-09-07T08:47:13.069Z,16.7
2017-09-07T08:52:03.552Z,16.6
2017-09-07T08:57:03.491Z,17.1
2017-09-07T09:02:16.708Z,17.8
2017-09-07T09:07:03.061Z,17.8
2017-09-07T09:12:03.576Z,18.4
2017-09-07T09:17:17.117Z,19.3
2017-09-07T09:22:03.525Z,19.3
2017-09-07T09:27:03.207Z,20.3
2017-09-07T09:32:17.362Z,20.3
2017-09-07T09:37:03.353Z,20.9
2017-09-07T09:42:02.845Z,20.7
2017-09-07T09:47:13.441Z,19.8
2017-09-07T09:52:03.333Z,19.4
2017-09-07T09:57:02.686Z,19.1
2017-09-07T10:02:17.786Z,19.2
2017-09-07T10:07:02.775Z,19.2
2017-09-07T10:12:03.484Z,19.9
2017-09-07T10:17:17.675Z,19.8
2017-09-07T10:22:03.072Z,20.0
2017-09-07T10:27:03.346Z,20.0
2017-09-07T10:32:13.233Z,20.4
2017-09-07T10:37:03.216Z,20.6
2017-09-07T10:42:02.719Z,20.6
2017-09-07T10:47:16.959Z,20.8
2017-09-07T10:52:02.728Z,20.5
2017-09-07T10:57:03.294Z,20.4
2017-09-07T11:02:12.958Z,19.5
2017-09-07T11:07:03.338Z,19.5
2017-09-07T11:12:02.941Z,18.7
2017-09-07T11:17:18.235Z,18.7
2017-09-07T11:22:03.353Z,18.6
2017-09-07T11:27:02.782Z,18.8
2017-09-07T11:32:13.870Z,18.8
2017-09-07T11:37:03.531Z,19.1
2017-09-07T11:42:03.173Z,19.6
2017-09-07T11:47:13.115Z,20.0
2017-09-07T11:52:03.061Z,20.4
2017-09-07T11:57:03.422Z,20.6
2017-09-07T12:02:17.553Z,20.7
2017-09-07T12:07:07.718Z,20.6
2017-09-07T12:12:03.474Z,21.7
2017-09-07T12:17:13.399Z,21.7
2017-09-07T12:22:02.870Z,22.2
2017-09-07T12:27:03.425Z,22.0
2017-09-07T12:32:22.434Z,22.0
2017-09-07T12:37:03.117Z,21.9
2017-09-07T12:42:03.608Z,22.4
2017-09-07T12:47:13.732Z,22.4
2017-09-07T12:52:02.786Z,22.3
2017-09-07T12:57:03.219Z,21.9
2017-09-07T13:02:17.306Z,21.7
2017-09-07T13:07:02.970Z,21.7
2017-09-07T13:12:03.516Z,22.2
2017-09-07T13:17:13.432Z,22.2
2017-09-07T13:22:03.182Z,22.6
2017-09-07T13:27:03.552Z,22.7
2017-09-07T13:32:17.442Z,23.0
2017-09-07T13:37:02.864Z,22.9
2017-09-07T13:42:03.321Z,23.6
2017-09-07T13:47:08.772Z,23.6
2017-09-07T13:52:03.434Z,24.5
2017-09-07T13:57:02.943Z,24.9
2017-09-07T14:02:17.667Z,23.3
2017-09-07T14:07:02.966Z,22.6
2017-09-07T14:12:03.382Z,22.5
2017-09-07T14:17:12.992Z,22.5
2017-09-07T14:22:03.446Z,22.8
2017-09-07T14:27:02.916Z,22.7
2017-09-07T14:32:13.675Z,22.9
2017-09-07T14:37:02.881Z,24.0
2017-09-07T14:42:03.382Z,26.1
2017-09-07T14:47:17.365Z,26.1
2017-09-07T14:52:03.300Z,30.8
2017-09-07T14:57:03.330Z,30.8
2017-09-07T15:02:13.411Z,33.7
2017-09-07T15:07:03.656Z,33.6
2017-09-07T15:12:03.295Z,34.0
2017-09-07T15:17:14.283Z,32.2
2017-09-07T15:22:03.381Z,32.2
2017-09-07T15:27:02.882Z,33.6
2017-09-07T15:32:13.738Z,36.6
2017-09-07T15:37:03.322Z,37.8
2017-09-07T15:42:02.676Z,34.8
2017-09-07T15:47:13.594Z,35.2
2017-09-07T15:52:03.545Z,36.4
2017-09-07T15:57:02.885Z,36.6
2017-09-07T16:02:10.254Z,36.5
2017-09-07T16:07:02.827Z,37.2
2017-09-07T16:12:03.439Z,36.7
2017-09-07T16:17:13.304Z,35.8
2017-09-07T16:22:02.728Z,34.9
2017-09-07T16:27:03.182Z,34.9
2017-09-07T16:32:13.914Z,33.7
2017-09-07T16:37:02.910Z,32.3
2017-09-07T16:42:03.369Z,32.3
2017-09-07T16:47:13.127Z,31.7
2017-09-07T16:52:02.729Z,31.0
2017-09-07T16:57:03.117Z,29.5
2017-09-07T17:02:13.909Z,28.8
2017-09-07T17:07:03.362Z,28.8
2017-09-07T17:12:02.801Z,27.5
2017-09-07T17:17:13.839Z,26.9
2017-09-07T17:22:03.606Z,26.8
2017-09-07T17:27:02.993Z,25.7
2017-09-07T17:32:13.824Z,24.6
2017-09-07T17:37:02.844Z,23.2
2017-09-07T17:42:03.353Z,21.7
2017-09-07T17:47:13.396Z,19.9
2017-09-07T17:52:03.273Z,19.9
2017-09-07T17:57:02.908Z,19.4
2017-09-07T18:02:13.398Z,18.6
2017-09-07T18:07:03.374Z,18.5
2017-09-07T18:12:02.950Z,18.3
2017-09-07T18:17:13.737Z,17.7
2017-09-07T18:22:02.824Z,17.6
2017-09-07T18:27:03.203Z,17.5
2017-09-07T18:32:07.163Z,17.0
2017-09-07T18:37:03.122Z,16.8
2017-09-07T18:42:03.339Z,16.7
2017-09-07T18:47:05.149Z,16.6
2017-09-07T18:52:03.101Z,16.4
2017-09-07T18:57:03.442Z,16.4
2017-09-07T19:02:04.241Z,16.2
2017-09-07T19:07:03.336Z,16.2
2017-09-07T19:12:03.660Z,16.1
2017-09-07T19:17:03.831Z,16.0
2017-09-07T19:22:03.336Z,15.9
2017-09-07T19:27:03.674Z,15.9
2017-09-07T19:32:05.566Z,15.6
2017-09-07T19:37:03.224Z,15.5
2017-09-07T19:42:03.700Z,15.2
2017-09-07T19:47:03.088Z,15.2
2017-09-07T19:52:03.295Z,14.9
2017-09-07T19:57:03.582Z,14.8
2017-09-07T20:02:04.217Z,14.7
2017-09-07T20:07:03.476Z,14.6
2017-09-07T20:12:03.076Z,14.6
2017-09-07T20:17:03.835Z,14.4
2017-09-07T20:22:03.381Z,14.2
2017-09-07T20:27:02.866Z,14.2
2017-09-07T20:32:03.604Z,14.0
2017-09-07T20:37:02.918Z,13.7
2017-09-07T20:42:03.138Z,13.5
2017-09-07T20:47:04.115Z,13.4
2017-09-07T20:52:02.748Z,13.4
2017-09-07T20:57:03.034Z,13.3
2017-09-07T21:02:05.295Z,13.2
2017-09-07T21:07:02.825Z,13.3
2017-09-07T21:12:03.194Z,13.3
2017-09-07T21:17:03.501Z,13.2
2017-09-07T21:22:02.877Z,13.1
2017-09-07T21:27:03.148Z,13.1
2017-09-07T21:32:03.511Z,13.1
2017-09-07T21:37:02.897Z,13.1
2017-09-07T21:42:03.204Z,13.0
2017-09-07T21:47:03.560Z,12.9
2017-09-07T21:52:02.892Z,12.6
2017-09-07T21:57:03.133Z,12.6
2017-09-07T22:02:03.591Z,12.5
2017-09-07T22:07:03.013Z,12.5
2017-09-07T22:12:03.277Z,12.4
2017-09-07T22:22:03.465Z,12.2
2017-09-07T22:27:03.569Z,12.2
2017-09-07T22:32:03.052Z,12.2
2017-09-07T22:37:03.514Z,12.2
2017-09-07T22:42:03.077Z,12.1
2017-09-07T22:47:02.728Z,12.1
2017-09-07T22:52:02.670Z,12.0
2017-09-07T22:57:03.272Z,12.0
2017-09-07T23:02:03.288Z,12.0
2017-09-07T23:07:03.015Z,12.0
2017-09-07T23:12:03.252Z,11.9
2017-09-07T23:17:03.218Z,11.8
2017-09-07T23:22:03.229Z,11.7
2017-09-07T23:27:03.008Z,11.6
2017-09-07T23:32:03.674Z,11.6
2017-09-07T23:37:03.394Z,11.7
2017-09-07T23:42:03.365Z,11.5
2017-09-07T23:47:03.273Z,11.4
2017-09-07T23:52:03.208Z,11.5
2017-09-07T23:57:02.974Z,11.4
